EGNS/IOM METAR and TAF weather

Enter ICAO airport designator
Station Type Date Time Source
EGNS METAR 2018/10/22 16:50 UTC NOAA

EGNS 221650Z 27010KT 230V300 9999 FEW022 BKN030 12/06 Q1037 NOSIG


Station Type Date Time Source
EGNS Decoded METAR 2018/10/22 16:50 UTC NOAA

Isle Of Man / Ronaldsway Airport, United Kingdom (EGNS) 54-05N 004-38W 0M
Oct 22, 2018 - 12:50 PM EDT / 2018.10.22 1650 UTC
Wind: from the W (270 degrees) at 12 MPH (10 KT) (direction variable):0
Visibility: greater than 7 mile(s):0
Sky conditions: mostly cloudy
Temperature: 53 F (12 C)
Dew Point: 42 F (6 C)
Relative Humidity: 66%
Pressure (altimeter): 30.62 in. Hg (1037 hPa)
ob: EGNS 221650Z 27010KT 230V300 9999 FEW022 BKN030 12/06 Q1037 NOSIG
cycle: 17

Station Type Date Time Source
EGNS TAF 2017/03/09 09:27 UTC NOAA

TAF TAF EGNS 090800Z 0909/0921 29012KT 9999 SCT018


Example: see airport list